sensor_id;sensor_type;location;lat;lon;timestamp;P1;durP1;ratioP1;P2;durP2;ratioP2
64789;SDS011;51223;51.816;5.862;2022-09-03T00:01:28;1.58;;;0.95;;
64789;SDS011;51223;51.816;5.862;2022-09-03T00:04:04;1.10;;;1.00;;
64789;SDS011;51223;51.816;5.862;2022-09-03T00:06:50;1.00;;;0.90;;
64789;SDS011;51223;51.816;5.862;2022-09-03T00:09:24;0.98;;;0.88;;
64789;SDS011;51223;51.816;5.862;2022-09-03T00:17:15;1.60;;;1.00;;
64789;SDS011;51223;51.816;5.862;2022-09-03T00:20:00;1.10;;;0.95;;
64789;SDS011;51223;51.816;5.862;2022-09-03T00:22:36;1.00;;;0.80;;
64789;SDS011;51223;51.816;5.862;2022-09-03T00:25:08;1.20;;;0.90;;
64789;SDS011;51223;51.816;5.862;2022-09-03T00:27:39;4.07;;;1.05;;
64789;SDS011;51223;51.816;5.862;2022-09-03T00:30:09;1.38;;;1.10;;
64789;SDS011;51223;51.816;5.862;2022-09-03T00:32:41;1.05;;;0.90;;
64789;SDS011;51223;51.816;5.862;2022-09-03T00:36:02;0.70;;;0.70;;
64789;SDS011;51223;51.816;5.862;2022-09-03T00:38:07;0.98;;;0.70;;
64789;SDS011;51223;51.816;5.862;2022-09-03T00:46:18;1.38;;;0.73;;
64789;SDS011;51223;51.816;5.862;2022-09-03T00:51:38;1.30;;;1.00;;
64789;SDS011;51223;51.816;5.862;2022-09-03T00:54:22;5.60;;;1.17;;
64789;SDS011;51223;51.816;5.862;2022-09-03T01:00:03;2.25;;;1.02;;
64789;SDS011;51223;51.816;5.862;2022-09-03T01:05:08;1.23;;;0.90;;
64789;SDS011;51223;51.816;5.862;2022-09-03T01:07:44;2.60;;;1.20;;
64789;SDS011;51223;51.816;5.862;2022-09-03T01:10:45;1.00;;;0.88;;
64789;SDS011;51223;51.816;5.862;2022-09-03T01:16:04;1.40;;;1.00;;
64789;SDS011;51223;51.816;5.862;2022-09-03T01:32:32;1.83;;;0.77;;
64789;SDS011;51223;51.816;5.862;2022-09-03T01:37:42;4.50;;;1.17;;
64789;SDS011;51223;51.816;5.862;2022-09-03T01:40:25;0.70;;;0.70;;
64789;SDS011;51223;51.816;5.862;2022-09-03T01:46:06;1.05;;;0.88;;
64789;SDS011;51223;51.816;5.862;2022-09-03T01:48:46;4.50;;;1.30;;
64789;SDS011;51223;51.816;5.862;2022-09-03T01:51:23;2.10;;;0.90;;
64789;SDS011;51223;51.816;5.862;2022-09-03T01:59:33;1.10;;;1.00;;
64789;SDS011;51223;51.816;5.862;2022-09-03T02:02:07;1.48;;;0.90;;
64789;SDS011;51223;51.816;5.862;2022-09-03T02:04:52;2.15;;;0.95;;
64789;SDS011;51223;51.816;5.862;2022-09-03T02:07:22;0.93;;;0.80;;
64789;SDS011;51223;51.816;5.862;2022-09-03T02:09:49;0.75;;;0.75;;
64789;SDS011;51223;51.816;5.862;2022-09-03T02:12:15;0.77;;;0.70;;
64789;SDS011;51223;51.816;5.862;2022-09-03T02:14:44;1.17;;;1.02;;
64789;SDS011;51223;51.816;5.862;2022-09-03T02:17:11;1.80;;;1.00;;
64789;SDS011;51223;51.816;5.862;2022-09-03T02:19:37;1.77;;;1.25;;
64789;SDS011;51223;51.816;5.862;2022-09-03T02:22:03;3.03;;;1.45;;
64789;SDS011;51223;51.816;5.862;2022-09-03T02:24:30;1.27;;;1.00;;
64789;SDS011;51223;51.816;5.862;2022-09-03T02:26:57;1.00;;;0.90;;
64789;SDS011;51223;51.816;5.862;2022-09-03T02:29:22;3.92;;;0.90;;
64789;SDS011;51223;51.816;5.862;2022-09-03T02:31:48;1.52;;;1.00;;
64789;SDS011;51223;51.816;5.862;2022-09-03T02:34:14;1.48;;;1.00;;
64789;SDS011;51223;51.816;5.862;2022-09-03T02:36:42;1.33;;;0.85;;
64789;SDS011;51223;51.816;5.862;2022-09-03T02:39:10;1.83;;;1.05;;
64789;SDS011;51223;51.816;5.862;2022-09-03T02:41:37;1.13;;;0.80;;
64789;SDS011;51223;51.816;5.862;2022-09-03T02:44:05;1.48;;;0.85;;
64789;SDS011;51223;51.816;5.862;2022-09-03T02:46:49;2.90;;;1.58;;
64789;SDS011;51223;51.816;5.862;2022-09-03T02:49:19;0.70;;;0.70;;
64789;SDS011;51223;51.816;5.862;2022-09-03T02:51:45;1.75;;;1.15;;
64789;SDS011;51223;51.816;5.862;2022-09-03T02:54:11;0.65;;;0.65;;
64789;SDS011;51223;51.816;5.862;2022-09-03T02:56:37;2.97;;;1.10;;
64789;SDS011;51223;51.816;5.862;2022-09-03T02:59:04;1.40;;;0.95;;
64789;SDS011;51223;51.816;5.862;2022-09-03T03:01:31;1.27;;;1.00;;
64789;SDS011;51223;51.816;5.862;2022-09-03T03:03:57;2.10;;;0.93;;
64789;SDS011;51223;51.816;5.862;2022-09-03T03:06:23;4.75;;;0.80;;
64789;SDS011;51223;51.816;5.862;2022-09-03T03:08:49;0.73;;;0.70;;
64789;SDS011;51223;51.816;5.862;2022-09-03T03:11:16;3.42;;;1.10;;
64789;SDS011;51223;51.816;5.862;2022-09-03T03:13:46;0.80;;;0.68;;
64789;SDS011;51223;51.816;5.862;2022-09-03T03:16:13;1.00;;;0.90;;
64789;SDS011;51223;51.816;5.862;2022-09-03T03:18:41;1.27;;;0.90;;
64789;SDS011;51223;51.816;5.862;2022-09-03T03:21:08;1.83;;;1.02;;
64789;SDS011;51223;51.816;5.862;2022-09-03T03:23:35;1.75;;;0.90;;
64789;SDS011;51223;51.816;5.862;2022-09-03T03:26:03;0.80;;;0.80;;
64789;SDS011;51223;51.816;5.862;2022-09-03T03:28:31;2.88;;;1.20;;
64789;SDS011;51223;51.816;5.862;2022-09-03T03:31:04;1.10;;;0.88;;
64789;SDS011;51223;51.816;5.862;2022-09-03T03:33:37;4.80;;;1.02;;
64789;SDS011;51223;51.816;5.862;2022-09-03T03:36:07;1.52;;;1.08;;
64789;SDS011;51223;51.816;5.862;2022-09-03T03:38:37;2.00;;;1.10;;
64789;SDS011;51223;51.816;5.862;2022-09-03T03:41:14;0.95;;;0.85;;
64789;SDS011;51223;51.816;5.862;2022-09-03T03:43:42;1.30;;;0.80;;
64789;SDS011;51223;51.816;5.862;2022-09-03T03:46:08;3.05;;;1.33;;
64789;SDS011;51223;51.816;5.862;2022-09-03T03:48:35;3.78;;;1.00;;
64789;SDS011;51223;51.816;5.862;2022-09-03T03:51:02;0.68;;;0.60;;
64789;SDS011;51223;51.816;5.862;2022-09-03T03:53:31;1.10;;;0.82;;
64789;SDS011;51223;51.816;5.862;2022-09-03T03:55:58;2.40;;;0.85;;
64789;SDS011;51223;51.816;5.862;2022-09-03T03:58:27;1.13;;;0.77;;
64789;SDS011;51223;51.816;5.862;2022-09-03T04:00:54;2.75;;;1.00;;
64789;SDS011;51223;51.816;5.862;2022-09-03T04:03:19;2.08;;;0.88;;
64789;SDS011;51223;51.816;5.862;2022-09-03T04:05:57;4.20;;;1.05;;
64789;SDS011;51223;51.816;5.862;2022-09-03T04:08:25;4.63;;;0.95;;
64789;SDS011;51223;51.816;5.862;2022-09-03T04:10:52;2.22;;;0.90;;
64789;SDS011;51223;51.816;5.862;2022-09-03T04:13:18;0.85;;;0.70;;
64789;SDS011;51223;51.816;5.862;2022-09-03T04:15:44;0.98;;;0.93;;
64789;SDS011;51223;51.816;5.862;2022-09-03T04:18:10;4.03;;;0.85;;
64789;SDS011;51223;51.816;5.862;2022-09-03T04:20:36;0.85;;;0.80;;
64789;SDS011;51223;51.816;5.862;2022-09-03T04:23:03;0.77;;;0.77;;
64789;SDS011;51223;51.816;5.862;2022-09-03T04:25:29;1.25;;;0.75;;
64789;SDS011;51223;51.816;5.862;2022-09-03T04:27:55;0.93;;;0.80;;
64789;SDS011;51223;51.816;5.862;2022-09-03T04:30:21;6.03;;;1.05;;
64789;SDS011;51223;51.816;5.862;2022-09-03T04:32:50;0.95;;;0.70;;
64789;SDS011;51223;51.816;5.862;2022-09-03T04:35:21;0.70;;;0.65;;
64789;SDS011;51223;51.816;5.862;2022-09-03T04:37:48;1.48;;;1.05;;
64789;SDS011;51223;51.816;5.862;2022-09-03T04:40:14;0.68;;;0.68;;
64789;SDS011;51223;51.816;5.862;2022-09-03T04:42:40;1.70;;;0.95;;
64789;SDS011;51223;51.816;5.862;2022-09-03T04:45:06;0.70;;;0.70;;
64789;SDS011;51223;51.816;5.862;2022-09-03T04:47:33;1.67;;;0.90;;
64789;SDS011;51223;51.816;5.862;2022-09-03T04:50:00;1.20;;;0.90;;
64789;SDS011;51223;51.816;5.862;2022-09-03T04:52:27;0.93;;;0.80;;
64789;SDS011;51223;51.816;5.862;2022-09-03T04:54:56;1.13;;;0.80;;
64789;SDS011;51223;51.816;5.862;2022-09-03T04:57:22;1.08;;;0.93;;
64789;SDS011;51223;51.816;5.862;2022-09-03T04:59:48;1.88;;;0.98;;
64789;SDS011;51223;51.816;5.862;2022-09-03T05:02:14;1.30;;;1.00;;
64789;SDS011;51223;51.816;5.862;2022-09-03T05:04:40;3.15;;;0.95;;
64789;SDS011;51223;51.816;5.862;2022-09-03T05:07:07;1.17;;;0.95;;
64789;SDS011;51223;51.816;5.862;2022-09-03T05:09:33;2.75;;;0.90;;
64789;SDS011;51223;51.816;5.862;2022-09-03T05:11:59;2.30;;;0.88;;
64789;SDS011;51223;51.816;5.862;2022-09-03T05:14:25;5.18;;;1.02;;
64789;SDS011;51223;51.816;5.862;2022-09-03T05:16:51;0.98;;;0.80;;
64789;SDS011;51223;51.816;5.862;2022-09-03T05:19:17;4.80;;;0.90;;
64789;SDS011;51223;51.816;5.862;2022-09-03T05:21:43;1.38;;;0.98;;
64789;SDS011;51223;51.816;5.862;2022-09-03T05:24:08;1.33;;;0.70;;
64789;SDS011;51223;51.816;5.862;2022-09-03T05:26:36;0.70;;;0.70;;
64789;SDS011;51223;51.816;5.862;2022-09-03T05:29:04;0.82;;;0.70;;
64789;SDS011;51223;51.816;5.862;2022-09-03T05:31:35;1.27;;;0.88;;
64789;SDS011;51223;51.816;5.862;2022-09-03T05:34:04;0.80;;;0.80;;
64789;SDS011;51223;51.816;5.862;2022-09-03T05:36:31;0.88;;;0.80;;
64789;SDS011;51223;51.816;5.862;2022-09-03T05:38:59;1.95;;;0.77;;
64789;SDS011;51223;51.816;5.862;2022-09-03T05:41:25;1.10;;;0.75;;
64789;SDS011;51223;51.816;5.862;2022-09-03T05:43:53;2.72;;;0.80;;
64789;SDS011;51223;51.816;5.862;2022-09-03T05:46:22;0.98;;;0.85;;
64789;SDS011;51223;51.816;5.862;2022-09-03T05:51:23;0.88;;;0.52;;
64789;SDS011;51223;51.816;5.862;2022-09-03T05:53:49;0.25;;;0.20;;
64789;SDS011;51223;51.816;5.862;2022-09-03T05:56:16;1.20;;;0.82;;
64789;SDS011;51223;51.816;5.862;2022-09-03T05:58:45;0.70;;;0.70;;
64789;SDS011;51223;51.816;5.862;2022-09-03T06:01:19;0.57;;;0.35;;
64789;SDS011;51223;51.816;5.862;2022-09-03T06:03:57;0.30;;;0.30;;
64789;SDS011;51223;51.816;5.862;2022-09-03T06:06:27;0.20;;;0.20;;
64789;SDS011;51223;51.816;5.862;2022-09-03T06:08:57;1.02;;;0.45;;
64789;SDS011;51223;51.816;5.862;2022-09-03T06:11:25;0.50;;;0.38;;
64789;SDS011;51223;51.816;5.862;2022-09-03T06:13:55;0.30;;;0.30;;
64789;SDS011;51223;51.816;5.862;2022-09-03T06:16:22;0.20;;;0.20;;
64789;SDS011;51223;51.816;5.862;2022-09-03T06:18:48;2.40;;;0.50;;
64789;SDS011;51223;51.816;5.862;2022-09-03T06:21:15;1.10;;;1.00;;
64789;SDS011;51223;51.816;5.862;2022-09-03T06:23:41;1.40;;;0.85;;
64789;SDS011;51223;51.816;5.862;2022-09-03T06:26:08;3.00;;;0.65;;
64789;SDS011;51223;51.816;5.862;2022-09-03T06:28:36;0.80;;;0.70;;
64789;SDS011;51223;51.816;5.862;2022-09-03T06:31:04;0.82;;;0.55;;
64789;SDS011;51223;51.816;5.862;2022-09-03T06:33:34;0.65;;;0.60;;
64789;SDS011;51223;51.816;5.862;2022-09-03T06:36:01;0.68;;;0.65;;
64789;SDS011;51223;51.816;5.862;2022-09-03T06:38:29;0.95;;;0.63;;
64789;SDS011;51223;51.816;5.862;2022-09-03T06:41:05;3.10;;;0.88;;
64789;SDS011;51223;51.816;5.862;2022-09-03T06:43:32;0.95;;;0.90;;
64789;SDS011;51223;51.816;5.862;2022-09-03T06:46:19;0.98;;;0.82;;
64789;SDS011;51223;51.816;5.862;2022-09-03T06:48:47;2.35;;;1.17;;
64789;SDS011;51223;51.816;5.862;2022-09-03T06:51:16;1.38;;;0.90;;
64789;SDS011;51223;51.816;5.862;2022-09-03T06:53:44;0.77;;;0.70;;
64789;SDS011;51223;51.816;5.862;2022-09-03T06:56:13;1.08;;;0.70;;
64789;SDS011;51223;51.816;5.862;2022-09-03T06:58:42;0.88;;;0.73;;
64789;SDS011;51223;51.816;5.862;2022-09-03T07:01:11;0.90;;;0.82;;
64789;SDS011;51223;51.816;5.862;2022-09-03T07:03:39;0.70;;;0.70;;
64789;SDS011;51223;51.816;5.862;2022-09-03T07:06:10;2.40;;;0.80;;
64789;SDS011;51223;51.816;5.862;2022-09-03T07:08:40;1.00;;;0.82;;
64789;SDS011;51223;51.816;5.862;2022-09-03T07:11:09;0.70;;;0.70;;
64789;SDS011;51223;51.816;5.862;2022-09-03T07:13:37;1.33;;;1.23;;
64789;SDS011;51223;51.816;5.862;2022-09-03T07:16:07;0.40;;;0.40;;
64789;SDS011;51223;51.816;5.862;2022-09-03T07:18:37;0.45;;;0.45;;
64789;SDS011;51223;51.816;5.862;2022-09-03T07:21:05;1.08;;;0.40;;
64789;SDS011;51223;51.816;5.862;2022-09-03T07:23:33;0.45;;;0.45;;
64789;SDS011;51223;51.816;5.862;2022-09-03T07:26:00;0.47;;;0.47;;
64789;SDS011;51223;51.816;5.862;2022-09-03T07:28:29;1.42;;;0.82;;
64789;SDS011;51223;51.816;5.862;2022-09-03T07:31:01;1.80;;;0.95;;
64789;SDS011;51223;51.816;5.862;2022-09-03T07:33:32;1.52;;;0.80;;
64789;SDS011;51223;51.816;5.862;2022-09-03T07:36:02;1.05;;;0.85;;
64789;SDS011;51223;51.816;5.862;2022-09-03T07:38:31;3.25;;;0.70;;
64789;SDS011;51223;51.816;5.862;2022-09-03T07:41:01;0.80;;;0.80;;
64789;SDS011;51223;51.816;5.862;2022-09-03T07:43:31;1.85;;;0.80;;
64789;SDS011;51223;51.816;5.862;2022-09-03T07:45:59;1.17;;;1.00;;
64789;SDS011;51223;51.816;5.862;2022-09-03T07:48:25;1.75;;;1.10;;
64789;SDS011;51223;51.816;5.862;2022-09-03T07:50:51;4.82;;;1.00;;
64789;SDS011;51223;51.816;5.862;2022-09-03T07:53:18;1.48;;;0.75;;
64789;SDS011;51223;51.816;5.862;2022-09-03T07:55:47;0.98;;;0.80;;
64789;SDS011;51223;51.816;5.862;2022-09-03T07:58:14;5.65;;;0.82;;
64789;SDS011;51223;51.816;5.862;2022-09-03T08:00:39;2.00;;;1.02;;
64789;SDS011;51223;51.816;5.862;2022-09-03T08:03:05;0.65;;;0.60;;
64789;SDS011;51223;51.816;5.862;2022-09-03T08:05:33;1.08;;;0.80;;
64789;SDS011;51223;51.816;5.862;2022-09-03T08:08:04;2.58;;;0.80;;
64789;SDS011;51223;51.816;5.862;2022-09-03T08:10:34;1.38;;;0.95;;
64789;SDS011;51223;51.816;5.862;2022-09-03T08:13:00;0.93;;;0.68;;
64789;SDS011;51223;51.816;5.862;2022-09-03T08:15:30;0.70;;;0.70;;
64789;SDS011;51223;51.816;5.862;2022-09-03T08:17:56;1.15;;;0.90;;
64789;SDS011;51223;51.816;5.862;2022-09-03T08:20:23;0.63;;;0.63;;
64789;SDS011;51223;51.816;5.862;2022-09-03T08:22:49;0.65;;;0.65;;
64789;SDS011;51223;51.816;5.862;2022-09-03T08:25:15;4.25;;;0.98;;
64789;SDS011;51223;51.816;5.862;2022-09-03T08:27:41;1.52;;;0.85;;
64789;SDS011;51223;51.816;5.862;2022-09-03T08:30:07;2.15;;;0.90;;
64789;SDS011;51223;51.816;5.862;2022-09-03T08:32:37;1.30;;;1.00;;
64789;SDS011;51223;51.816;5.862;2022-09-03T08:35:04;2.40;;;0.68;;
64789;SDS011;51223;51.816;5.862;2022-09-03T08:37:31;2.58;;;0.98;;
64789;SDS011;51223;51.816;5.862;2022-09-03T08:39:57;1.80;;;0.90;;
64789;SDS011;51223;51.816;5.862;2022-09-03T08:42:30;3.30;;;0.93;;
64789;SDS011;51223;51.816;5.862;2022-09-03T08:45:16;0.60;;;0.40;;
64789;SDS011;51223;51.816;5.862;2022-09-03T08:47:47;1.90;;;0.80;;
64789;SDS011;51223;51.816;5.862;2022-09-03T08:50:25;0.90;;;0.90;;
64789;SDS011;51223;51.816;5.862;2022-09-03T08:53:01;0.80;;;0.80;;
64789;SDS011;51223;51.816;5.862;2022-09-03T08:58:28;3.15;;;0.90;;
64789;SDS011;51223;51.816;5.862;2022-09-03T09:09:14;1.35;;;0.70;;
64789;SDS011;51223;51.816;5.862;2022-09-03T09:11:59;3.15;;;1.13;;
64789;SDS011;51223;51.816;5.862;2022-09-03T09:14:36;5.35;;;1.33;;
64789;SDS011;51223;51.816;5.862;2022-09-03T09:20:02;5.90;;;0.77;;
64789;SDS011;51223;51.816;5.862;2022-09-03T09:22:36;0.80;;;0.70;;
64789;SDS011;51223;51.816;5.862;2022-09-03T09:25:18;0.70;;;0.70;;
64789;SDS011;51223;51.816;5.862;2022-09-03T09:27:49;2.05;;;0.80;;
64789;SDS011;51223;51.816;5.862;2022-09-03T09:30:20;10.95;;;1.30;;
64789;SDS011;51223;51.816;5.862;2022-09-03T09:32:46;1.92;;;0.82;;
64789;SDS011;51223;51.816;5.862;2022-09-03T09:35:12;1.48;;;0.80;;
64789;SDS011;51223;51.816;5.862;2022-09-03T09:37:53;0.80;;;0.80;;
64789;SDS011;51223;51.816;5.862;2022-09-03T09:40:24;2.70;;;0.90;;
64789;SDS011;51223;51.816;5.862;2022-09-03T09:43:05;2.53;;;1.00;;
64789;SDS011;51223;51.816;5.862;2022-09-03T09:45:42;1.10;;;0.82;;
64789;SDS011;51223;51.816;5.862;2022-09-03T09:48:14;3.22;;;1.02;;
64789;SDS011;51223;51.816;5.862;2022-09-03T09:50:45;5.43;;;1.10;;
64789;SDS011;51223;51.816;5.862;2022-09-03T09:53:11;0.95;;;0.80;;
64789;SDS011;51223;51.816;5.862;2022-09-03T09:55:47;2.60;;;1.05;;
64789;SDS011;51223;51.816;5.862;2022-09-03T09:58:13;2.28;;;1.10;;
64789;SDS011;51223;51.816;5.862;2022-09-03T10:00:39;5.38;;;1.10;;
64789;SDS011;51223;51.816;5.862;2022-09-03T10:03:09;1.00;;;0.80;;
64789;SDS011;51223;51.816;5.862;2022-09-03T10:05:38;1.30;;;1.00;;
64789;SDS011;51223;51.816;5.862;2022-09-03T10:08:06;1.23;;;1.00;;
64789;SDS011;51223;51.816;5.862;2022-09-03T10:10:46;3.67;;;1.35;;
64789;SDS011;51223;51.816;5.862;2022-09-03T10:15:46;2.00;;;1.10;;
64789;SDS011;51223;51.816;5.862;2022-09-03T10:20:55;1.13;;;0.82;;
64789;SDS011;51223;51.816;5.862;2022-09-03T10:23:32;2.38;;;0.80;;
64789;SDS011;51223;51.816;5.862;2022-09-03T10:26:08;1.13;;;1.02;;
64789;SDS011;51223;51.816;5.862;2022-09-03T10:28:38;3.10;;;0.88;;
64789;SDS011;51223;51.816;5.862;2022-09-03T10:36:30;2.97;;;1.45;;
64789;SDS011;51223;51.816;5.862;2022-09-03T10:39:21;1.38;;;0.80;;
64789;SDS011;51223;51.816;5.862;2022-09-03T10:42:02;0.98;;;0.80;;
64789;SDS011;51223;51.816;5.862;2022-09-03T10:44:37;1.33;;;0.93;;
64789;SDS011;51223;51.816;5.862;2022-09-03T10:50:09;2.60;;;1.00;;
64789;SDS011;51223;51.816;5.862;2022-09-03T10:52:58;2.67;;;1.10;;
64789;SDS011;51223;51.816;5.862;2022-09-03T10:55:39;1.20;;;0.70;;
64789;SDS011;51223;51.816;5.862;2022-09-03T11:01:02;1.67;;;1.23;;
64789;SDS011;51223;51.816;5.862;2022-09-03T11:06:22;4.78;;;1.15;;
64789;SDS011;51223;51.816;5.862;2022-09-03T11:11:35;2.45;;;1.10;;
64789;SDS011;51223;51.816;5.862;2022-09-03T11:14:07;6.30;;;1.00;;
64789;SDS011;51223;51.816;5.862;2022-09-03T11:16:39;1.13;;;1.05;;
64789;SDS011;51223;51.816;5.862;2022-09-03T11:19:10;1.17;;;0.98;;
64789;SDS011;51223;51.816;5.862;2022-09-03T11:21:41;3.97;;;1.33;;
64789;SDS011;51223;51.816;5.862;2022-09-03T11:24:10;1.42;;;0.93;;
64789;SDS011;51223;51.816;5.862;2022-09-03T11:26:39;1.05;;;0.95;;
64789;SDS011;51223;51.816;5.862;2022-09-03T11:29:11;1.42;;;1.08;;
64789;SDS011;51223;51.816;5.862;2022-09-03T11:31:45;5.28;;;1.40;;
64789;SDS011;51223;51.816;5.862;2022-09-03T11:34:44;2.00;;;0.82;;
64789;SDS011;51223;51.816;5.862;2022-09-03T11:37:20;1.98;;;1.50;;
64789;SDS011;51223;51.816;5.862;2022-09-03T11:39:52;3.08;;;1.58;;
64789;SDS011;51223;51.816;5.862;2022-09-03T11:42:28;3.80;;;1.15;;
64789;SDS011;51223;51.816;5.862;2022-09-03T11:47:59;2.75;;;1.33;;
64789;SDS011;51223;51.816;5.862;2022-09-03T11:50:26;1.77;;;1.20;;
64789;SDS011;51223;51.816;5.862;2022-09-03T11:53:07;2.72;;;1.30;;
64789;SDS011;51223;51.816;5.862;2022-09-03T11:55:45;3.33;;;1.65;;
64789;SDS011;51223;51.816;5.862;2022-09-03T12:00:54;1.75;;;1.33;;
64789;SDS011;51223;51.816;5.862;2022-09-03T12:03:35;4.13;;;1.25;;
64789;SDS011;51223;51.816;5.862;2022-09-03T12:09:19;1.20;;;1.10;;
64789;SDS011;51223;51.816;5.862;2022-09-03T12:20:10;1.58;;;0.90;;
64789;SDS011;51223;51.816;5.862;2022-09-03T12:22:38;6.43;;;1.38;;
64789;SDS011;51223;51.816;5.862;2022-09-03T12:25:11;1.48;;;1.23;;
64789;SDS011;51223;51.816;5.862;2022-09-03T12:27:39;2.33;;;1.25;;
64789;SDS011;51223;51.816;5.862;2022-09-03T12:30:16;2.40;;;1.05;;
64789;SDS011;51223;51.816;5.862;2022-09-03T12:32:43;1.00;;;0.90;;
64789;SDS011;51223;51.816;5.862;2022-09-03T12:37:44;1.23;;;1.00;;
64789;SDS011;51223;51.816;5.862;2022-09-03T12:40:18;2.65;;;1.23;;
64789;SDS011;51223;51.816;5.862;2022-09-03T12:42:46;3.92;;;1.40;;
64789;SDS011;51223;51.816;5.862;2022-09-03T12:45:12;2.38;;;1.23;;
64789;SDS011;51223;51.816;5.862;2022-09-03T12:47:42;3.85;;;1.80;;
64789;SDS011;51223;51.816;5.862;2022-09-03T12:50:09;1.05;;;0.90;;
64789;SDS011;51223;51.816;5.862;2022-09-03T12:55:20;1.38;;;1.05;;
64789;SDS011;51223;51.816;5.862;2022-09-03T12:58:54;1.80;;;1.20;;
64789;SDS011;51223;51.816;5.862;2022-09-03T13:01:05;1.15;;;1.00;;
64789;SDS011;51223;51.816;5.862;2022-09-03T13:03:47;1.30;;;1.20;;
64789;SDS011;51223;51.816;5.862;2022-09-03T13:06:20;1.40;;;0.65;;
64789;SDS011;51223;51.816;5.862;2022-09-03T13:08:49;4.15;;;1.13;;
64789;SDS011;51223;51.816;5.862;2022-09-03T13:11:20;2.67;;;1.10;;
64789;SDS011;51223;51.816;5.862;2022-09-03T13:13:54;1.25;;;1.15;;
64789;SDS011;51223;51.816;5.862;2022-09-03T13:16:33;1.92;;;1.08;;
64789;SDS011;51223;51.816;5.862;2022-09-03T13:32:38;2.58;;;1.13;;
64789;SDS011;51223;51.816;5.862;2022-09-03T13:37:44;4.05;;;1.60;;
64789;SDS011;51223;51.816;5.862;2022-09-03T13:43:10;6.78;;;1.10;;
64789;SDS011;51223;51.816;5.862;2022-09-03T13:45:59;0.98;;;0.88;;
64789;SDS011;51223;51.816;5.862;2022-09-03T13:48:30;2.42;;;1.10;;
64789;SDS011;51223;51.816;5.862;2022-09-03T13:53:50;1.65;;;1.20;;
64789;SDS011;51223;51.816;5.862;2022-09-03T13:56:34;1.02;;;0.93;;
64789;SDS011;51223;51.816;5.862;2022-09-03T13:59:19;1.48;;;1.27;;
64789;SDS011;51223;51.816;5.862;2022-09-03T14:02:01;1.67;;;1.08;;
64789;SDS011;51223;51.816;5.862;2022-09-03T14:04:41;2.35;;;0.90;;
64789;SDS011;51223;51.816;5.862;2022-09-03T14:12:48;2.95;;;1.08;;
64789;SDS011;51223;51.816;5.862;2022-09-03T14:15:32;3.00;;;1.58;;
64789;SDS011;51223;51.816;5.862;2022-09-03T14:21:07;2.45;;;1.20;;
64789;SDS011;51223;51.816;5.862;2022-09-03T14:26:19;1.50;;;1.00;;
64789;SDS011;51223;51.816;5.862;2022-09-03T14:29:04;1.65;;;1.10;;
64789;SDS011;51223;51.816;5.862;2022-09-03T14:42:47;1.27;;;0.90;;
64789;SDS011;51223;51.816;5.862;2022-09-03T14:54:10;1.85;;;0.90;;
64789;SDS011;51223;51.816;5.862;2022-09-03T14:59:48;1.48;;;0.93;;
64789;SDS011;51223;51.816;5.862;2022-09-03T15:05:17;0.88;;;0.82;;
64789;SDS011;51223;51.816;5.862;2022-09-03T15:07:46;3.33;;;1.10;;
64789;SDS011;51223;51.816;5.862;2022-09-03T15:10:36;5.28;;;1.00;;
64789;SDS011;51223;51.816;5.862;2022-09-03T15:13:11;1.35;;;0.68;;
64789;SDS011;51223;51.816;5.862;2022-09-03T15:24:31;3.78;;;1.30;;
64789;SDS011;51223;51.816;5.862;2022-09-03T15:27:55;1.95;;;1.23;;
64789;SDS011;51223;51.816;5.862;2022-09-03T15:30:09;1.13;;;1.08;;
64789;SDS011;51223;51.816;5.862;2022-09-03T15:38:09;4.20;;;0.90;;
64789;SDS011;51223;51.816;5.862;2022-09-03T15:53:56;1.75;;;1.30;;
64789;SDS011;51223;51.816;5.862;2022-09-03T15:56:39;1.00;;;0.95;;
64789;SDS011;51223;51.816;5.862;2022-09-03T15:59:17;5.25;;;1.40;;
64789;SDS011;51223;51.816;5.862;2022-09-03T16:02:02;1.13;;;1.00;;
64789;SDS011;51223;51.816;5.862;2022-09-03T16:04:41;1.10;;;1.00;;
64789;SDS011;51223;51.816;5.862;2022-09-03T16:07:38;5.38;;;1.50;;
64789;SDS011;51223;51.816;5.862;2022-09-03T16:10:17;1.63;;;0.98;;
64789;SDS011;51223;51.816;5.862;2022-09-03T16:15:40;1.40;;;1.30;;
64789;SDS011;51223;51.816;5.862;2022-09-03T16:18:27;2.15;;;1.35;;
64789;SDS011;51223;51.816;5.862;2022-09-03T16:21:03;1.98;;;1.30;;
64789;SDS011;51223;51.816;5.862;2022-09-03T16:26:17;1.60;;;1.30;;
64789;SDS011;51223;51.816;5.862;2022-09-03T16:28:58;1.40;;;1.20;;
64789;SDS011;51223;51.816;5.862;2022-09-03T16:31:31;1.30;;;1.20;;
64789;SDS011;51223;51.816;5.862;2022-09-03T16:45:04;0.93;;;0.90;;
64789;SDS011;51223;51.816;5.862;2022-09-03T16:50:44;1.63;;;1.40;;
64789;SDS011;51223;51.816;5.862;2022-09-03T16:56:14;1.55;;;1.20;;
64789;SDS011;51223;51.816;5.862;2022-09-03T16:59:24;2.20;;;1.40;;
64789;SDS011;51223;51.816;5.862;2022-09-03T17:05:12;1.75;;;1.20;;
64789;SDS011;51223;51.816;5.862;2022-09-03T17:07:51;2.03;;;1.30;;
64789;SDS011;51223;51.816;5.862;2022-09-03T17:10:45;1.63;;;1.15;;
64789;SDS011;51223;51.816;5.862;2022-09-03T17:13:35;1.25;;;1.02;;
64789;SDS011;51223;51.816;5.862;2022-09-03T17:16:25;1.33;;;1.10;;
64789;SDS011;51223;51.816;5.862;2022-09-03T17:19:31;5.70;;;1.60;;
64789;SDS011;51223;51.816;5.862;2022-09-03T17:25:05;1.55;;;1.42;;
64789;SDS011;51223;51.816;5.862;2022-09-03T17:30:34;1.45;;;1.35;;
64789;SDS011;51223;51.816;5.862;2022-09-03T17:36:01;1.23;;;1.13;;
64789;SDS011;51223;51.816;5.862;2022-09-03T17:41:49;3.90;;;2.25;;
64789;SDS011;51223;51.816;5.862;2022-09-03T17:44:31;2.00;;;1.35;;
64789;SDS011;51223;51.816;5.862;2022-09-03T17:55:51;1.27;;;1.17;;
64789;SDS011;51223;51.816;5.862;2022-09-03T17:58:21;2.05;;;1.20;;
64789;SDS011;51223;51.816;5.862;2022-09-03T18:00:59;2.80;;;1.42;;
64789;SDS011;51223;51.816;5.862;2022-09-03T18:03:43;1.92;;;1.30;;
64789;SDS011;51223;51.816;5.862;2022-09-03T18:11:50;3.10;;;1.40;;
64789;SDS011;51223;51.816;5.862;2022-09-03T18:17:24;1.92;;;1.20;;
64789;SDS011;51223;51.816;5.862;2022-09-03T18:20:05;5.43;;;1.50;;
64789;SDS011;51223;51.816;5.862;2022-09-03T18:22:52;1.20;;;1.10;;
64789;SDS011;51223;51.816;5.862;2022-09-03T18:26:04;1.20;;;1.10;;
64789;SDS011;51223;51.816;5.862;2022-09-03T18:28:58;2.00;;;1.40;;
64789;SDS011;51223;51.816;5.862;2022-09-03T18:31:46;2.25;;;1.30;;
64789;SDS011;51223;51.816;5.862;2022-09-03T18:34:32;1.15;;;1.08;;
64789;SDS011;51223;51.816;5.862;2022-09-03T18:37:22;5.38;;;1.35;;
64789;SDS011;51223;51.816;5.862;2022-09-03T18:40:10;2.67;;;1.45;;
64789;SDS011;51223;51.816;5.862;2022-09-03T18:43:09;1.38;;;1.20;;
64789;SDS011;51223;51.816;5.862;2022-09-03T18:49:10;2.15;;;1.42;;
64789;SDS011;51223;51.816;5.862;2022-09-03T18:55:56;8.40;;;1.80;;
64789;SDS011;51223;51.816;5.862;2022-09-03T19:05:22;1.55;;;1.30;;
64789;SDS011;51223;51.816;5.862;2022-09-03T19:08:24;3.17;;;1.60;;
64789;SDS011;51223;51.816;5.862;2022-09-03T19:14:28;1.48;;;1.23;;
64789;SDS011;51223;51.816;5.862;2022-09-03T19:17:28;8.50;;;1.77;;
64789;SDS011;51223;51.816;5.862;2022-09-03T19:20:34;2.33;;;1.50;;
64789;SDS011;51223;51.816;5.862;2022-09-03T19:23:20;1.85;;;1.17;;
64789;SDS011;51223;51.816;5.862;2022-09-03T19:26:14;2.25;;;1.55;;
64789;SDS011;51223;51.816;5.862;2022-09-03T19:29:07;1.60;;;1.33;;
64789;SDS011;51223;51.816;5.862;2022-09-03T19:32:03;3.55;;;1.75;;
64789;SDS011;51223;51.816;5.862;2022-09-03T19:35:05;6.93;;;4.75;;
64789;SDS011;51223;51.816;5.862;2022-09-03T19:38:14;13.30;;;7.82;;
64789;SDS011;51223;51.816;5.862;2022-09-03T19:41:26;17.83;;;8.57;;
64789;SDS011;51223;51.816;5.862;2022-09-03T19:47:34;12.13;;;7.50;;
64789;SDS011;51223;51.816;5.862;2022-09-03T19:50:28;9.63;;;7.03;;
64789;SDS011;51223;51.816;5.862;2022-09-03T19:53:17;5.03;;;3.83;;
64789;SDS011;51223;51.816;5.862;2022-09-03T19:56:04;4.15;;;3.33;;
64789;SDS011;51223;51.816;5.862;2022-09-03T19:58:55;5.40;;;3.30;;